Time;durP1;ratioP1;P1;durP2;ratioP2;P2;SDS_P1;SDS_P2;PMS_P1;PMS_P2;Temp;Humidity;BMP_temperature;BMP_pressure;BME280_temperature;BME280_humidity;BME280_pressure;Samples;Min_cycle;Max_cycle;Signal;HPM_P1;HPM_P2
2023/10/23 00:00:24;;;;;;;12.40;5.00;;;;;;;13.61;75.56;98658.54;107200;1257;60524;-37
2023/10/23 00:02:51;;;;;;;11.90;5.10;;;;;;;13.63;75.59;98662.27;107221;1257;72621;-37
2023/10/23 00:05:19;;;;;;;10.40;5.90;;;;;;;13.62;75.63;98663.29;107223;1257;67220;-37
2023/10/23 00:07:47;;;;;;;10.50;5.10;;;;;;;13.59;75.76;98663.30;107206;1257;72658;-37
2023/10/23 00:10:15;;;;;;;11.40;5.00;;;;;;;13.57;75.84;98656.86;107203;1257;60280;-37
2023/10/23 00:12:42;;;;;;;13.40;5.10;;;;;;;13.56;76.06;98656.63;107204;1257;60537;-37
2023/10/23 00:15:10;;;;;;;11.30;4.70;;;;;;;13.59;75.94;98657.31;107192;1257;73878;-37
2023/10/23 00:17:38;;;;;;;11.10;4.80;;;;;;;13.62;75.94;98661.03;107119;1262;67564;-37
2023/10/23 00:20:08;;;;;;;12.70;5.20;;;;;;;13.62;75.99;98656.91;107196;1257;72667;-37
2023/10/23 00:22:35;;;;;;;11.30;5.00;;;;;;;13.59;76.00;98661.44;107254;1257;61277;-37
2023/10/23 00:25:03;;;;;;;14.40;5.10;;;;;;;13.55;76.15;98660.14;107216;1257;60408;-37
2023/10/23 00:27:30;;;;;;;9.60;4.30;;;;;;;13.50;76.23;98655.48;107201;1262;73895;-37
2023/10/23 00:30:00;;;;;;;12.70;4.00;;;;;;;13.51;76.18;98654.63;107215;1256;66446;-37
2023/10/23 00:32:28;;;;;;;14.70;4.70;;;;;;;13.53;76.04;98654.54;107291;1257;72693;-37
2023/10/23 00:34:55;;;;;;;12.10;4.80;;;;;;;13.50;76.07;98655.65;107215;1257;60524;-37
2023/10/23 00:37:23;;;;;;;9.70;4.60;;;;;;;13.47;75.97;98656.11;107235;1262;60303;-37
2023/10/23 00:39:50;;;;;;;8.70;3.90;;;;;;;13.44;76.20;98655.05;107265;1258;72588;-37
2023/10/23 00:42:18;;;;;;;13.30;4.20;;;;;;;13.41;76.19;98652.25;107252;1263;67781;-37
2023/10/23 00:44:45;;;;;;;7.00;3.70;;;;;;;13.42;76.08;98654.34;107209;1260;72690;-36
2023/10/23 00:47:13;;;;;;;9.70;4.10;;;;;;;13.42;76.11;98653.72;107228;1257;60511;-37
2023/10/23 00:49:41;;;;;;;10.60;4.00;;;;;;;13.38;76.30;98654.67;107227;1257;60597;-37
2023/10/23 00:52:09;;;;;;;13.20;4.20;;;;;;;13.33;76.59;98655.77;107206;1257;72626;-37
2023/10/23 00:54:37;;;;;;;11.00;4.40;;;;;;;13.28;76.68;98654.70;107492;1254;66758;-37
2023/10/23 00:57:05;;;;;;;9.70;3.80;;;;;;;13.25;76.71;98654.17;107526;1256;72391;-37
2023/10/23 00:59:32;;;;;;;8.50;4.20;;;;;;;13.28;76.84;98656.50;107338;1254;60665;-37
2023/10/23 01:02:00;;;;;;;11.80;4.40;;;;;;;13.24;76.95;98649.90;107477;1253;60356;-37
2023/10/23 01:04:28;;;;;;;11.30;4.10;;;;;;;13.19;77.20;98651.31;107510;1254;73864;-37
2023/10/23 01:06:56;;;;;;;7.80;3.90;;;;;;;13.15;77.49;98659.41;107476;1253;66629;-37
2023/10/23 01:09:23;;;;;;;7.70;3.40;;;;;;;13.14;77.63;98659.80;107455;1259;72711;-37
2023/10/23 01:11:51;;;;;;;9.30;3.90;;;;;;;13.15;77.63;98660.75;107475;1254;61664;-37
2023/10/23 01:14:18;;;;;;;8.30;3.60;;;;;;;13.14;77.73;98664.02;107476;1254;60467;-37
2023/10/23 01:16:46;;;;;;;6.60;3.60;;;;;;;13.11;77.99;98666.64;107532;1254;71571;-37
2023/10/23 01:19:13;;;;;;;10.00;3.60;;;;;;;13.05;78.39;98668.44;107488;1259;67562;-37
2023/10/23 01:21:41;;;;;;;8.80;3.50;;;;;;;13.03;78.64;98665.95;107465;1254;70586;-37
2023/10/23 01:24:09;;;;;;;8.00;3.40;;;;;;;13.05;78.74;98666.49;107526;1254;60246;-37
2023/10/23 01:26:37;;;;;;;8.10;3.50;;;;;;;13.06;79.13;98667.43;107305;1257;60272;-37
2023/10/23 01:29:04;;;;;;;7.30;3.00;;;;;;;13.04;79.31;98663.77;107547;1254;73869;-37
2023/10/23 01:31:32;;;;;;;7.60;3.20;;;;;;;13.00;79.57;98657.31;107470;1254;67900;-37
2023/10/23 01:34:00;;;;;;;8.40;2.70;;;;;;;13.06;79.55;98660.57;107490;1259;72700;-37
2023/10/23 01:36:27;;;;;;;6.70;2.90;;;;;;;13.11;79.53;98669.37;107443;1254;60495;-37
2023/10/23 01:38:55;;;;;;;5.40;2.80;;;;;;;13.11;79.56;98671.54;107505;1253;60513;-37
2023/10/23 01:41:23;;;;;;;5.10;2.90;;;;;;;13.08;79.84;98674.80;107487;1258;73900;-37
2023/10/23 01:43:51;;;;;;;6.10;2.70;;;;;;;13.07;79.92;98672.94;107516;1258;66431;-37
2023/10/23 01:46:19;;;;;;;3.90;2.20;;;;;;;13.10;79.77;98677.13;107464;1259;71717;-37
2023/10/23 01:48:47;;;;;;;8.80;2.60;;;;;;;13.13;79.83;98677.06;107533;1254;61019;-37
2023/10/23 01:51:15;;;;;;;5.40;3.00;;;;;;;13.14;79.84;98678.39;107467;1254;60450;-37
2023/10/23 01:53:42;;;;;;;5.90;2.60;;;;;;;13.13;79.88;98683.91;107529;1254;72702;-37
2023/10/23 01:56:10;;;;;;;5.90;2.80;;;;;;;13.11;79.97;98684.07;107504;1254;66800;-37
2023/10/23 01:58:37;;;;;;;5.40;2.70;;;;;;;13.09;80.03;98688.63;107488;1254;72683;-37
2023/10/23 02:01:05;;;;;;;4.70;2.20;;;;;;;13.08;80.06;98686.69;107491;1259;60995;-37
2023/10/23 02:03:33;;;;;;;6.20;2.60;;;;;;;13.08;80.11;98692.13;107506;1254;60428;-37
2023/10/23 02:06:00;;;;;;;4.80;2.40;;;;;;;13.05;80.32;98686.93;107511;1259;73931;-37
2023/10/23 02:08:28;;;;;;;5.60;2.10;;;;;;;13.00;80.53;98685.70;107369;1254;67598;-37
2023/10/23 02:10:55;;;;;;;4.20;2.00;;;;;;;12.95;80.82;98682.14;107341;1258;72678;-37
2023/10/23 02:13:23;;;;;;;5.50;2.40;;;;;;;12.95;80.89;98686.57;107530;1259;60451;-37
2023/10/23 02:15:51;;;;;;;4.30;2.20;;;;;;;12.97;80.85;98689.91;107497;1254;60287;-37
2023/10/23 02:18:18;;;;;;;5.10;2.40;;;;;;;12.96;81.27;98691.47;107505;1254;73856;-36
2023/10/23 02:20:46;;;;;;;4.80;2.30;;;;;;;12.93;81.77;98688.67;107468;1254;67594;-37
2023/10/23 02:23:13;;;;;;;4.40;1.70;;;;;;;12.91;82.50;98686.02;107337;1258;72731;-37
2023/10/23 02:25:46;;;;;;;3.40;1.70;;;;;;;12.96;82.93;98690.45;107496;1257;61670;-36
2023/10/23 02:28:14;;;;;;;2.00;1.50;;;;;;;13.02;82.86;98691.53;107486;1254;60418;-37
2023/10/23 02:30:41;;;;;;;5.00;1.90;;;;;;;13.08;82.86;98695.34;107510;1254;73826;-37
2023/10/23 02:33:09;;;;;;;5.20;1.90;;;;;;;13.10;83.00;98697.19;107520;1254;67575;-36
2023/10/23 02:35:37;;;;;;;2.90;1.70;;;;;;;13.10;82.95;98696.89;107485;1258;72092;-37
2023/10/23 02:38:04;;;;;;;3.50;2.00;;;;;;;13.14;82.86;98701.25;107461;1254;60413;-35
2023/10/23 02:40:32;;;;;;;3.30;1.60;;;;;;;13.19;82.59;98701.95;107518;1254;60502;-37
2023/10/23 02:42:59;;;;;;;2.40;1.70;;;;;;;13.21;82.48;98699.85;107363;1253;73088;-36
2023/10/23 02:45:27;;;;;;;1.90;1.30;;;;;;;13.19;82.40;98704.52;107535;1258;66328;-36
2023/10/23 02:47:54;;;;;;;2.00;1.50;;;;;;;13.18;82.36;98706.54;107470;1259;72687;-36
2023/10/23 02:50:22;;;;;;;2.50;1.60;;;;;;;13.21;82.38;98709.09;107471;1258;61711;-37
2023/10/23 02:52:50;;;;;;;2.00;1.50;;;;;;;13.25;82.06;98708.16;107472;1254;60118;-36
2023/10/23 02:55:17;;;;;;;3.70;1.70;;;;;;;13.25;82.26;98712.20;107494;1254;72891;-35
2023/10/23 02:57:45;;;;;;;3.30;1.80;;;;;;;13.21;82.15;98707.39;107497;1253;66415;-36
2023/10/23 03:00:14;;;;;;;5.10;1.60;;;;;;;13.19;82.29;98708.86;107485;1254;71426;-36
2023/10/23 03:02:43;;;;;;;6.20;1.60;;;;;;;13.21;81.98;98714.54;107533;1254;60961;-36
2023/10/23 03:05:13;;;;;;;3.20;1.30;;;;;;;13.25;82.04;98715.24;107547;1258;60248;-36
2023/10/23 03:07:41;;;;;;;4.40;1.90;;;;;;;13.25;82.06;98710.41;107488;1255;73843;-36
2023/10/23 03:10:09;;;;;;;3.20;1.70;;;;;;;13.22;82.08;98716.40;107479;1254;67921;-36
2023/10/23 03:12:37;;;;;;;4.80;2.00;;;;;;;13.19;82.13;98719.52;107517;1254;72663;-36
2023/10/23 03:15:05;;;;;;;2.10;1.40;;;;;;;13.24;81.86;98719.52;107470;1255;61699;-36
2023/10/23 03:17:32;;;;;;;4.70;1.70;;;;;;;13.27;81.71;98722.92;107557;1259;60268;-36
2023/10/23 03:20:00;;;;;;;2.90;1.80;;;;;;;13.23;81.81;98723.56;107646;1254;71573;-36
2023/10/23 03:22:28;;;;;;;3.30;1.80;;;;;;;13.17;81.98;98724.11;107480;1259;67608;-36
2023/10/23 03:24:55;;;;;;;3.60;1.70;;;;;;;13.12;82.19;98724.59;107496;1254;72684;-36
2023/10/23 03:27:24;;;;;;;4.40;1.50;;;;;;;13.10;82.04;98725.80;107449;1254;61700;-36
2023/10/23 03:29:53;;;;;;;3.90;1.60;;;;;;;13.08;81.97;98725.73;107523;1258;60434;-37
2023/10/23 03:32:20;;;;;;;3.50;1.50;;;;;;;13.04;81.90;98728.52;107495;1257;73864;-37
2023/10/23 03:34:48;;;;;;;4.00;1.30;;;;;;;12.99;81.60;98734.91;107475;1259;67659;-36
2023/10/23 03:37:16;;;;;;;1.30;0.90;;;;;;;12.98;81.09;98739.27;107462;1260;71439;-37
2023/10/23 03:39:43;;;;;;;3.40;1.00;;;;;;;13.02;80.20;98735.70;107472;1260;60092;-37
2023/10/23 03:42:11;;;;;;;5.80;1.10;;;;;;;13.02;79.04;98733.52;107481;1254;60524;-36
2023/10/23 03:44:39;;;;;;;1.20;0.90;;;;;;;13.00;78.23;98739.11;107530;1254;72523;-36
2023/10/23 03:47:07;;;;;;;3.80;0.70;;;;;;;13.00;77.67;98745.10;107519;1254;65639;-37
2023/10/23 03:49:35;;;;;;;2.50;1.00;;;;;;;13.03;76.65;98741.13;107452;1260;72704;-36
2023/10/23 03:52:03;;;;;;;0.90;0.80;;;;;;;13.09;75.96;98743.46;107485;1259;60567;-36
2023/10/23 03:54:30;;;;;;;0.90;0.80;;;;;;;13.12;75.63;98745.27;107505;1254;60347;-36
2023/10/23 03:56:58;;;;;;;3.00;0.80;;;;;;;13.11;75.64;98746.82;107472;1259;72610;-37
2023/10/23 03:59:25;;;;;;;0.70;0.60;;;;;;;13.09;75.76;98744.94;107482;1260;67556;-37
2023/10/23 04:01:53;;;;;;;1.20;0.70;;;;;;;13.13;75.81;98748.06;107493;1254;72801;-36
2023/10/23 04:04:20;;;;;;;4.10;0.90;;;;;;;13.16;75.74;98747.91;107477;1254;60351;-37
2023/10/23 04:06:48;;;;;;;2.90;0.90;;;;;;;13.16;75.51;98745.82;107471;1259;59157;-36
2023/10/23 04:09:16;;;;;;;1.00;0.80;;;;;;;13.16;75.36;98748.92;107498;1254;73863;-36
2023/10/23 04:11:43;;;;;;;1.60;0.90;;;;;;;13.17;75.19;98751.64;107469;1254;67530;-37
2023/10/23 04:14:11;;;;;;;0.90;0.80;;;;;;;13.28;75.11;98754.42;107472;1254;72679;-37
2023/10/23 04:16:39;;;;;;;1.70;0.80;;;;;;;13.34;74.88;98757.84;107492;1254;60258;-36
2023/10/23 04:19:06;;;;;;;2.00;1.00;;;;;;;13.35;74.74;98766.63;107499;1254;60018;-37
2023/10/23 04:21:38;;;;;;;1.10;1.00;;;;;;;13.34;74.66;98759.78;107581;1254;72615;-37
2023/10/23 04:24:09;;;;;;;2.40;0.90;;;;;;;13.36;74.33;98765.69;107566;1254;66624;-37
2023/10/23 04:26:36;;;;;;;;;;;;;;;13.43;74.14;98769.72;107660;1257;72021;-37
2023/10/23 04:29:05;;;;;;;2.00;1.00;;;;;;;13.43;74.01;98767.23;107494;1255;60296;-37
2023/10/23 04:31:32;;;;;;;2.50;1.20;;;;;;;13.40;74.03;98762.50;107630;1255;60488;-36
2023/10/23 04:34:00;;;;;;;1.30;0.90;;;;;;;13.37;74.07;98764.36;107599;1256;73847;-36
2023/10/23 04:36:27;;;;;;;2.40;1.40;;;;;;;13.38;73.74;98769.65;107483;1260;67621;-36
2023/10/23 04:38:55;;;;;;;1.60;1.00;;;;;;;13.41;73.72;98772.35;107603;1254;71721;-37
2023/10/23 04:41:23;;;;;;;2.90;1.30;;;;;;;13.37;73.36;98772.92;107579;1254;60494;-37
2023/10/23 04:43:50;;;;;;;2.10;1.10;;;;;;;13.33;73.50;98774.17;107499;1259;60438;-36
2023/10/23 04:46:18;;;;;;;1.70;0.90;;;;;;;13.32;73.59;98773.08;107496;1254;73800;-37
2023/10/23 04:48:45;;;;;;;1.60;1.30;;;;;;;13.33;73.39;98775.57;107482;1254;67746;-36
2023/10/23 04:51:13;;;;;;;1.60;1.20;;;;;;;13.32;73.19;98781.33;107505;1254;72687;-37
2023/10/23 04:53:41;;;;;;;1.50;1.20;;;;;;;13.26;73.34;98786.79;107594;1258;60284;-36
2023/10/23 04:56:09;;;;;;;3.10;1.30;;;;;;;13.19;73.51;98785.54;107623;1255;60351;-36
2023/10/23 04:58:38;;;;;;;2.00;1.40;;;;;;;13.15;73.71;98789.21;107614;1254;73829;-36
2023/10/23 05:01:18;;;;;;;3.20;1.50;;;;;;;13.15;73.68;98788.34;107532;1254;66264;-36
2023/10/23 05:03:45;;;;;;;1.80;1.40;;;;;;;13.13;73.47;98790.36;107403;1254;71681;-36
2023/10/23 05:06:17;;;;;;;2.20;1.40;;;;;;;13.09;73.78;98796.64;107652;1254;60279;-36
2023/10/23 05:08:44;;;;;;;2.60;1.60;;;;;;;13.04;73.93;98797.49;107621;1254;60553;-36
2023/10/23 05:11:13;;;;;;;1.80;1.10;;;;;;;13.05;73.97;98799.05;107516;1254;72631;-36
2023/10/23 05:13:40;;;;;;;3.10;1.30;;;;;;;13.07;73.88;98800.98;107533;1255;67038;-36
2023/10/23 05:16:08;;;;;;;1.60;1.50;;;;;;;13.06;73.84;98802.86;107665;1256;71391;-36
2023/10/23 05:18:35;;;;;;;1.60;1.50;;;;;;;13.02;73.87;98801.99;107620;1254;60328;-37
2023/10/23 05:21:07;;;;;;;3.40;1.40;;;;;;;13.02;74.10;98805.73;107627;1254;60186;-36
2023/10/23 05:23:34;;;;;;;1.90;1.40;;;;;;;13.07;73.93;98811.25;107535;1254;73881;-36
2023/10/23 05:26:02;;;;;;;2.60;1.50;;;;;;;13.09;73.80;98814.05;107615;1253;66431;-36
2023/10/23 05:28:30;;;;;;;1.80;1.30;;;;;;;13.09;73.85;98812.58;107588;1253;71423;-37
2023/10/23 05:30:59;;;;;;;4.50;1.60;;;;;;;13.07;73.89;98814.20;107583;1254;60485;-36
2023/10/23 05:33:26;;;;;;;3.50;1.10;;;;;;;13.08;73.92;98822.46;107484;1254;60517;-36
2023/10/23 05:36:04;;;;;;;1.70;1.30;;;;;;;13.13;74.04;98828.31;107473;1254;73811;-37
2023/10/23 05:38:32;;;;;;;1.60;1.50;;;;;;;13.13;74.16;98828.92;107510;1259;67567;-36
2023/10/23 05:40:59;;;;;;;1.80;1.20;;;;;;;13.10;74.46;98836.14;107614;1254;71375;-36
2023/10/23 05:43:27;;;;;;;1.90;1.40;;;;;;;13.08;74.86;98834.89;107583;1257;60444;-36
2023/10/23 05:45:55;;;;;;;1.70;1.20;;;;;;;13.10;75.17;98841.20;107499;1254;60402;-37
2023/10/23 05:48:23;;;;;;;1.50;1.10;;;;;;;13.12;75.32;98842.70;107587;1253;73858;-36
2023/10/23 05:50:58;;;;;;;1.90;1.50;;;;;;;13.12;75.42;98843.39;107488;1255;67589;-36
2023/10/23 05:53:27;;;;;;;1.70;1.50;;;;;;;13.09;75.93;98847.64;107602;1254;71459;-36
2023/10/23 05:55:59;;;;;;;2.50;1.50;;;;;;;13.09;76.24;98847.17;107535;1260;60415;-36
2023/10/23 05:58:27;;;;;;;1.60;1.40;;;;;;;13.12;76.55;98845.95;107528;1259;60470;-37
2023/10/23 06:00:54;;;;;;;1.70;1.10;;;;;;;13.15;76.73;98846.21;107499;1254;73870;-36
2023/10/23 06:03:22;;;;;;;1.70;1.40;;;;;;;13.13;76.81;98843.01;107473;1260;67561;-37
2023/10/23 06:05:50;;;;;;;3.00;1.50;;;;;;;13.12;77.16;98846.90;107568;1254;71294;-37
2023/10/23 06:08:17;;;;;;;3.10;1.40;;;;;;;13.13;77.11;98848.61;107347;1254;61738;-37
2023/10/23 06:10:45;;;;;;;2.00;1.60;;;;;;;13.18;77.05;98847.13;107478;1254;59336;-37
2023/10/23 06:13:13;;;;;;;2.60;1.70;;;;;;;13.20;77.05;98846.44;107631;1254;73833;-36
2023/10/23 06:15:40;;;;;;;5.70;2.10;;;;;;;13.19;76.92;98852.35;107590;1254;68084;-37
2023/10/23 06:18:08;;;;;;;3.20;1.80;;;;;;;13.18;77.01;98851.64;107495;1254;72706;-37
2023/10/23 06:20:35;;;;;;;2.00;1.40;;;;;;;13.24;77.38;98854.06;107613;1253;61650;-37
2023/10/23 06:23:03;;;;;;;3.60;1.80;;;;;;;13.29;77.06;98855.84;107541;1253;60369;-37
2023/10/23 06:25:31;;;;;;;3.00;1.70;;;;;;;13.31;77.12;98858.49;107595;1255;72612;-37
2023/10/23 06:27:59;;;;;;;2.70;1.60;;;;;;;13.31;77.15;98859.81;107684;1254;65736;-37
2023/10/23 06:30:27;;;;;;;7.10;1.60;;;;;;;13.34;77.22;98868.44;107592;1254;72707;-36
2023/10/23 06:32:55;;;;;;;2.70;1.50;;;;;;;13.40;76.97;98859.34;107595;1254;60053;-36
2023/10/23 06:35:23;;;;;;;3.10;1.80;;;;;;;13.42;77.06;98864.55;107664;1256;61141;-36
2023/10/23 06:37:50;;;;;;;3.30;1.50;;;;;;;13.42;77.29;98858.56;107691;1257;72959;-36
2023/10/23 06:40:18;;;;;;;2.60;1.90;;;;;;;13.47;76.96;98865.33;107574;1254;67554;-37
2023/10/23 06:42:45;;;;;;;2.60;1.90;;;;;;;13.55;76.93;98866.56;107609;1254;72645;-37
2023/10/23 06:45:13;;;;;;;4.70;2.50;;;;;;;13.57;76.78;98864.69;107628;1254;60420;-37
2023/10/23 06:47:41;;;;;;;2.10;1.50;;;;;;;13.58;76.99;98868.89;107727;1252;60415;-37
2023/10/23 06:50:13;;;;;;;2.10;1.70;;;;;;;13.62;76.55;98862.59;107694;1252;73914;-37
2023/10/23 06:52:42;;;;;;;1.90;1.70;;;;;;;13.69;76.26;98867.79;107632;1254;67892;-36
2023/10/23 06:55:10;;;;;;;3.00;1.80;;;;;;;13.73;75.79;98872.77;107720;1254;72687;-37
2023/10/23 06:57:38;;;;;;;3.80;1.90;;;;;;;13.73;75.53;98866.15;107745;1254;60517;-36
2023/10/23 07:00:06;;;;;;;2.00;1.50;;;;;;;13.81;75.65;98871.59;107591;1254;60270;-36
2023/10/23 07:02:34;;;;;;;4.20;1.50;;;;;;;13.89;74.91;98865.18;107665;1254;73814;-36
2023/10/23 07:05:02;;;;;;;2.00;1.70;;;;;;;13.94;74.53;98873.80;107697;1254;67602;-36
2023/10/23 07:07:29;;;;;;;2.40;1.80;;;;;;;13.94;74.39;98881.29;107645;1254;72977;-36
2023/10/23 07:09:58;;;;;;;7.10;1.90;;;;;;;13.94;74.25;98879.27;107674;1254;60421;-36
2023/10/23 07:12:27;;;;;;;4.50;2.00;;;;;;;14.00;73.72;98879.26;107603;1252;60483;-36
2023/10/23 07:14:55;;;;;;;2.50;1.80;;;;;;;14.06;73.21;98882.81;107708;1252;73885;-36
2023/10/23 07:17:22;;;;;;;2.30;2.10;;;;;;;14.08;72.79;98882.80;107687;1254;67748;-36
2023/10/23 07:19:51;;;;;;;2.80;2.00;;;;;;;14.08;72.47;98881.58;107625;1254;72692;-36
2023/10/23 07:22:20;;;;;;;2.60;1.90;;;;;;;14.06;71.70;98877.83;107647;1253;60427;-36
2023/10/23 07:24:47;;;;;;;3.20;2.00;;;;;;;14.12;71.84;98881.00;107634;1252;60430;-36
2023/10/23 07:27:16;;;;;;;3.20;1.80;;;;;;;14.18;71.82;98889.79;107653;1254;73880;-36
2023/10/23 07:29:44;;;;;;;4.80;1.90;;;;;;;14.23;70.93;98888.69;107622;1254;67554;-37
2023/10/23 07:32:11;;;;;;;2.40;1.90;;;;;;;14.28;70.10;98887.73;107660;1254;72652;-36
2023/10/23 07:34:39;;;;;;;2.10;1.60;;;;;;;14.34;69.32;98895.12;107561;1257;61516;-36
2023/10/23 07:37:09;;;;;;;3.10;1.80;;;;;;;14.46;69.04;98898.73;107452;1254;210476;-37
2023/10/23 07:41:18;;;;;;;2.60;2.00;;;;;;;14.61;68.51;98903.67;104140;1292;600235;-36
2023/10/23 07:43:46;;;;;;;2.80;2.20;;;;;;;14.63;68.25;98904.05;106618;1265;60116;-36
2023/10/23 07:46:14;;;;;;;4.20;2.10;;;;;;;14.62;68.04;98904.60;106693;1270;60035;-36
2023/10/23 07:48:45;;;;;;;3.60;1.80;;;;;;;14.70;68.01;98901.52;106854;1263;72292;-37
2023/10/23 07:51:13;;;;;;;5.10;2.00;;;;;;;14.77;67.63;98903.59;106856;1263;67615;-37
2023/10/23 07:53:40;;;;;;;2.80;2.10;;;;;;;14.83;67.56;98904.34;106870;1263;72396;-36
2023/10/23 07:56:08;;;;;;;3.80;1.90;;;;;;;14.91;67.50;98909.27;106899;1263;202653;-36
2023/10/23 07:58:36;;;;;;;3.70;2.00;;;;;;;15.00;67.17;98907.20;107030;1260;58776;-36
2023/10/23 08:01:04;;;;;;;5.10;2.00;;;;;;;15.09;65.81;98899.95;107014;1259;72258;-35
2023/10/23 08:03:33;;;;;;;4.30;2.30;;;;;;;15.12;65.98;98902.59;107079;1260;67595;-37
2023/10/23 08:06:05;;;;;;;2.20;2.00;;;;;;;15.12;65.52;98907.90;107086;1260;71446;-36
2023/10/23 08:08:40;;;;;;;3.30;2.10;;;;;;;15.12;65.46;98908.98;107338;1256;59603;-36
2023/10/23 08:11:09;;;;;;;3.20;1.80;;;;;;;15.14;65.41;98906.17;107337;1256;59598;-36
2023/10/23 08:13:37;;;;;;;3.60;1.80;;;;;;;15.23;64.46;98910.79;107357;1257;73094;-36
2023/10/23 08:16:04;;;;;;;2.40;2.10;;;;;;;15.27;63.91;98914.04;107305;1255;67567;-36
2023/10/23 08:18:35;;;;;;;6.50;2.20;;;;;;;15.24;64.17;98914.30;107334;1260;72609;-37
2023/10/23 08:21:09;;;;;;;5.00;2.30;;;;;;;15.23;64.22;98911.73;107311;1256;60790;-37
2023/10/23 08:23:37;;;;;;;3.80;2.40;;;;;;;15.25;64.51;98917.41;107302;1256;60086;-37
2023/10/23 08:26:04;;;;;;;4.50;2.20;;;;;;;15.32;64.36;98914.46;107245;1256;73139;-37
2023/10/23 08:28:32;;;;;;;5.00;2.10;;;;;;;15.43;63.59;98917.52;107275;1256;67577;-37
2023/10/23 08:31:19;;;;;;;3.40;2.00;;;;;;;15.53;62.59;98920.13;107252;1258;70980;-37
2023/10/23 08:34:06;;;;;;;7.20;2.50;;;;;;;15.56;62.80;98919.70;107319;1256;59989;-37
2023/10/23 08:36:34;;;;;;;2.80;2.20;;;;;;;15.59;62.15;98922.23;107368;1257;59561;-37
2023/10/23 08:39:02;;;;;;;2.10;1.90;;;;;;;15.60;61.72;98926.05;107283;1256;73036;-37
2023/10/23 08:41:31;;;;;;;3.30;2.30;;;;;;;15.64;62.48;98934.31;107300;1256;67611;-37
2023/10/23 08:43:59;;;;;;;5.30;2.50;;;;;;;15.70;62.04;98932.00;107327;1256;72671;-37
2023/10/23 08:46:29;;;;;;;5.30;2.50;;;;;;;15.73;61.85;98937.19;107167;1256;60087;-37
2023/10/23 08:48:57;;;;;;;4.10;2.10;;;;;;;15.74;61.28;98944.14;107252;1260;59213;-37
2023/10/23 08:51:25;;;;;;;10.80;2.20;;;;;;;15.73;61.45;98950.95;107283;1257;73189;-37
2023/10/23 08:54:01;;;;;;;5.70;2.50;;;;;;;15.66;61.48;98952.09;107235;1255;66458;-37
2023/10/23 08:56:38;;;;;;;5.80;2.30;;;;;;;15.55;61.12;98959.59;107223;1257;71763;-37
2023/10/23 08:59:08;;;;;;;4.80;2.30;;;;;;;15.44;61.23;98956.77;107309;1256;59656;-37
2023/10/23 09:01:36;;;;;;;3.00;2.10;;;;;;;15.35;61.80;98960.41;107279;1256;59599;-37
2023/10/23 09:04:05;;;;;;;2.90;2.40;;;;;;;15.26;61.78;98967.73;107330;1256;73040;-37
2023/10/23 09:06:35;;;;;;;2.70;2.10;;;;;;;15.19;62.20;98958.18;107265;1256;67628;-37
2023/10/23 09:09:05;;;;;;;5.90;2.00;;;;;;;15.17;62.54;98964.20;107325;1256;72673;-37
2023/10/23 09:11:45;;;;;;;6.20;2.40;;;;;;;15.21;62.21;98960.34;107328;1256;59834;-37
2023/10/23 09:14:28;;;;;;;2.80;2.20;;;;;;;15.21;62.31;98963.94;107309;1256;60176;-37
2023/10/23 09:16:59;;;;;;;3.60;2.30;;;;;;;15.22;62.82;98956.20;107277;1256;73048;-37
2023/10/23 09:19:39;;;;;;;4.10;2.30;;;;;;;15.26;62.42;98957.66;107295;1256;67903;-37
2023/10/23 09:22:07;;;;;;;3.10;2.40;;;;;;;15.33;62.01;98965.65;107249;1256;72699;-37
2023/10/23 09:24:36;;;;;;;4.80;2.70;;;;;;;15.39;62.03;98960.86;107298;1256;60099;-37
2023/10/23 09:27:04;;;;;;;3.90;2.60;;;;;;;15.44;61.83;98959.11;107282;1257;60020;-37
2023/10/23 09:29:32;;;;;;;4.40;2.20;;;;;;;15.53;61.84;98961.63;107254;1256;71756;-37
2023/10/23 09:32:00;;;;;;;3.90;2.20;;;;;;;15.69;60.52;98972.68;107285;1255;67920;-37
2023/10/23 09:34:28;;;;;;;3.80;2.50;;;;;;;15.76;60.07;98967.95;107205;1256;72680;-37
2023/10/23 09:36:56;;;;;;;4.60;2.40;;;;;;;15.73;60.04;98961.80;107311;1260;60244;-37
2023/10/23 09:39:24;;;;;;;5.70;2.60;;;;;;;15.67;59.99;98961.92;107360;1256;59705;-37
2023/10/23 09:41:54;;;;;;;3.80;2.40;;;;;;;15.58;60.11;98968.08;107281;1256;73092;-37
2023/10/23 09:44:24;;;;;;;2.50;2.30;;;;;;;15.52;60.44;98965.70;107314;1256;67305;-37
2023/10/23 09:46:52;;;;;;;2.90;2.40;;;;;;;15.46;60.20;98960.18;107259;1256;71398;-37
2023/10/23 09:49:20;;;;;;;5.10;2.60;;;;;;;15.44;60.52;98963.88;107262;1256;60053;-37
2023/10/23 09:51:49;;;;;;;3.40;2.70;;;;;;;15.43;60.43;98958.41;107322;1255;62212;-37
2023/10/23 09:54:19;;;;;;;;;;;;;;;15.43;60.41;98957.40;107353;1256;73016;-37
2023/10/23 09:56:49;;;;;;;4.70;2.50;;;;;;;15.45;60.21;98955.58;107316;1257;66741;-37
2023/10/23 09:59:18;;;;;;;5.60;2.50;;;;;;;15.50;60.01;98956.73;107317;1256;73151;-37
2023/10/23 10:01:50;;;;;;;2.80;2.30;;;;;;;15.55;59.92;98956.23;107330;1256;59567;-37
2023/10/23 10:04:30;;;;;;;2.90;2.50;;;;;;;15.64;60.24;98962.58;107305;1255;60060;-37
2023/10/23 10:07:11;;;;;;;3.50;2.70;;;;;;;15.75;59.69;98961.54;107280;1256;73068;-37
2023/10/23 10:09:38;;;;;;;3.50;2.50;;;;;;;15.86;59.34;98963.65;107327;1256;66641;-37
2023/10/23 10:12:06;;;;;;;3.50;2.60;;;;;;;15.97;59.13;98965.79;107263;1256;72668;-37
2023/10/23 10:14:34;;;;;;;3.80;2.70;;;;;;;16.12;59.06;98964.48;107170;1256;60107;-37
2023/10/23 10:17:01;;;;;;;6.40;2.60;;;;;;;16.25;57.88;98967.95;107415;1255;59976;-37
2023/10/23 10:19:29;;;;;;;4.50;2.50;;;;;;;16.27;57.64;98971.84;107248;1256;73033;-36
2023/10/23 10:22:26;;;;;;;4.00;2.80;;;;;;;16.23;57.18;98964.92;107183;1256;67811;-37
2023/10/23 10:24:54;;;;;;;4.00;2.60;;;;;;;16.19;57.69;98967.79;107246;1260;75191;-36
2023/10/23 10:27:22;;;;;;;3.80;2.60;;;;;;;16.16;57.24;98971.02;107303;1256;60177;-37
2023/10/23 10:29:51;;;;;;;3.90;2.50;;;;;;;16.14;57.29;98974.15;107283;1256;59581;-37
2023/10/23 10:32:20;;;;;;;3.60;2.60;;;;;;;16.12;57.38;98970.98;107315;1257;73115;-36
2023/10/23 10:34:53;;;;;;;4.30;2.40;;;;;;;16.05;57.54;98973.61;107226;1257;67043;-36
2023/10/23 10:37:25;;;;;;;5.10;2.90;;;;;;;16.00;58.03;98974.14;107180;1255;72774;-36
2023/10/23 10:39:56;;;;;;;4.50;2.50;;;;;;;15.95;58.01;98975.20;107276;1256;60983;-36
2023/10/23 10:42:25;;;;;;;5.20;2.40;;;;;;;15.94;58.41;98976.22;107286;1260;59764;-36
2023/10/23 10:44:53;;;;;;;3.40;2.50;;;;;;;15.97;58.39;98974.00;107331;1256;71817;-37
2023/10/23 10:47:40;;;;;;;3.20;2.70;;;;;;;16.00;58.36;98971.95;107276;1255;66763;-37
2023/10/23 10:50:10;;;;;;;5.20;2.80;;;;;;;16.05;58.45;98974.02;107298;1256;71510;-36
2023/10/23 10:52:39;;;;;;;3.10;2.60;;;;;;;16.07;58.03;98965.48;107273;1256;59395;-36
2023/10/23 10:55:08;;;;;;;3.50;2.70;;;;;;;16.13;58.02;98966.43;107270;1256;59660;-37
2023/10/23 10:57:39;;;;;;;2.90;2.60;;;;;;;16.27;58.27;98967.30;107326;1260;73119;-36
2023/10/23 11:00:11;;;;;;;3.00;2.40;;;;;;;16.48;56.81;98975.52;107242;1256;68188;-36
2023/10/23 11:02:39;;;;;;;2.80;2.30;;;;;;;16.68;55.33;98972.34;107291;1256;72695;-36
2023/10/23 11:05:11;;;;;;;2.60;2.00;;;;;;;16.84;54.37;98966.13;107242;1256;59630;-36
2023/10/23 11:07:39;;;;;;;6.90;2.40;;;;;;;16.93;53.85;98976.64;107282;1256;59504;-36
2023/10/23 11:10:10;;;;;;;3.50;2.30;;;;;;;17.03;53.67;98979.27;107273;1257;71550;-37
2023/10/23 11:12:38;;;;;;;3.70;2.30;;;;;;;17.16;53.89;98976.66;107333;1256;67895;-36
2023/10/23 11:15:06;;;;;;;6.80;2.40;;;;;;;17.32;52.74;98980.11;107247;1256;71798;-37
2023/10/23 11:17:34;;;;;;;3.20;2.30;;;;;;;17.42;51.93;98978.41;107295;1257;59356;-37
2023/10/23 11:20:13;;;;;;;3.60;2.20;;;;;;;17.45;51.96;98984.54;107155;1256;59514;-37
2023/10/23 11:22:44;;;;;;;3.90;2.20;;;;;;;17.52;51.72;98988.05;107234;1256;73157;-36
2023/10/23 11:25:12;;;;;;;3.90;2.40;;;;;;;17.54;51.18;98990.44;107291;1256;67944;-36
2023/10/23 11:27:40;;;;;;;3.50;2.00;;;;;;;17.49;51.50;98998.41;107377;1256;72657;-36
2023/10/23 11:30:08;;;;;;;2.20;2.00;;;;;;;17.45;51.90;98998.79;107277;1256;60181;-37
2023/10/23 11:32:37;;;;;;;3.10;2.50;;;;;;;17.45;52.21;98999.17;107395;1260;59814;-37